createdAt,value
2023-04-20T00:03:54.012Z,101631.55
2023-04-20T00:09:00.142Z,101627.95
2023-04-20T00:14:06.102Z,101628.52
2023-04-20T00:19:12.227Z,101635.45
2023-04-20T00:24:18.017Z,101634.11
2023-04-20T00:29:23.745Z,101626.11
2023-04-20T00:34:29.325Z,101619.19
2023-04-20T00:39:34.845Z,101619.19
2023-04-20T00:44:41.523Z,101623.65
2023-04-20T00:49:47.426Z,101629.29
2023-04-20T00:54:53.196Z,101632.83
2023-04-20T00:59:58.981Z,101630.57
2023-04-20T01:05:04.998Z,101623.29
2023-04-20T01:10:11.979Z,101619.56
2023-04-20T01:15:17.862Z,101611.75
2023-04-20T01:20:25.043Z,101617.81
2023-04-20T01:25:31.650Z,101617.91
2023-04-20T01:30:39.050Z,101619.34
2023-04-20T01:35:44.612Z,101615.45
2023-04-20T01:40:50.957Z,101599.34
2023-04-20T01:45:56.536Z,101592.42
2023-04-20T01:51:02.097Z,101600.42
2023-04-20T01:56:08.836Z,101598.89
2023-04-20T02:01:14.613Z,101596.92
2023-04-20T02:06:20.140Z,101597.39
2023-04-20T02:11:26.424Z,101595.08
2023-04-20T02:16:32.101Z,101601.44
2023-04-20T02:21:38.003Z,101604.61
2023-04-20T02:26:43.618Z,101597.44
2023-04-20T02:31:49.191Z,101591.23
2023-04-20T02:36:54.692Z,101599.48
2023-04-20T02:42:00.482Z,101596.36
2023-04-20T02:47:06.844Z,101593.34
2023-04-20T02:52:12.755Z,101590.67
2023-04-20T02:57:18.316Z,101596.16
2023-04-20T03:02:25.196Z,101590.94
2023-04-20T03:07:33.218Z,101586.63
2023-04-20T03:12:39.525Z,101594.27
2023-04-20T03:18:04.075Z,101577.66
2023-04-20T03:23:11.185Z,101572.16
2023-04-20T03:28:17.346Z,101592.98
2023-04-20T03:33:23.469Z,101589.86
2023-04-20T03:38:29.270Z,101582.06
2023-04-20T03:43:35.145Z,101591.15
2023-04-20T03:48:41.159Z,101588.02
2023-04-20T03:53:46.748Z,101595.09
2023-04-20T03:58:53.407Z,101590.58
2023-04-20T04:04:00.884Z,101580.02
2023-04-20T04:09:06.854Z,101585.19
2023-04-20T04:14:12.374Z,101590.06
2023-04-20T04:19:19.356Z,101589.81
2023-04-20T04:24:26.908Z,101594.63
2023-04-20T04:29:35.778Z,101595.40
2023-04-20T04:34:47.979Z,101587.45
2023-04-20T04:39:53.865Z,101596.21
2023-04-20T04:45:02.341Z,101597.30
2023-04-20T04:50:10.972Z,101598.17
2023-04-20T04:55:17.636Z,101613.55
2023-04-20T05:00:23.629Z,101624.12
2023-04-20T05:05:29.158Z,101622.52
2023-04-20T05:10:34.658Z,101621.23
2023-04-20T05:15:41.267Z,101632.64
2023-04-20T05:20:47.336Z,101641.86
2023-04-20T05:25:52.840Z,101643.09
2023-04-20T05:30:58.975Z,101648.22
2023-04-20T05:36:04.686Z,101644.73
2023-04-20T05:41:10.449Z,101650.47
2023-04-20T05:46:16.055Z,101648.74
2023-04-20T05:51:22.608Z,101659.46
2023-04-20T05:56:28.470Z,101657.78
2023-04-20T06:01:34.037Z,101655.27
2023-04-20T06:06:39.542Z,101659.27
2023-04-20T06:11:45.055Z,101661.30
2023-04-20T06:16:50.537Z,101656.38
2023-04-20T06:21:56.292Z,101648.23
2023-04-20T06:27:02.298Z,101654.81
2023-04-20T06:32:07.745Z,101652.94
2023-04-20T06:37:13.253Z,101651.59
2023-04-20T06:42:18.832Z,101660.27
2023-04-20T06:47:26.078Z,101678.15
2023-04-20T06:52:32.067Z,101686.83
2023-04-20T06:57:40.417Z,101703.69
2023-04-20T07:02:48.639Z,101704.27
2023-04-20T07:07:54.265Z,101698.41
2023-04-20T07:12:59.718Z,101693.45
2023-04-20T07:18:05.241Z,101670.28
2023-04-20T07:23:10.783Z,101670.61
2023-04-20T07:28:16.219Z,101673.63
2023-04-20T07:33:21.735Z,101677.02
2023-04-20T07:38:27.242Z,101681.70
2023-04-20T07:43:32.749Z,101683.05
2023-04-20T07:48:39.353Z,101691.78
2023-04-20T07:53:49.696Z,101690.63
2023-04-20T07:58:55.218Z,101701.55
2023-04-20T08:04:02.063Z,101703.45
2023-04-20T08:09:07.728Z,101700.00
2023-04-20T08:14:16.778Z,101687.47
2023-04-20T08:19:22.531Z,101693.77
2023-04-20T08:24:28.109Z,101685.94
2023-04-20T08:29:33.603Z,101692.66
2023-04-20T08:34:46.474Z,101702.29
2023-04-20T08:39:52.017Z,101707.39
2023-04-20T08:44:59.188Z,101706.58
2023-04-20T08:50:06.275Z,101703.61
2023-04-20T08:55:13.865Z,101699.75
2023-04-20T09:00:19.797Z,101694.22
2023-04-20T09:05:32.214Z,101683.44
2023-04-20T09:10:45.899Z,101682.03
2023-04-20T09:15:51.401Z,101687.20
2023-04-20T09:20:58.007Z,101687.95
2023-04-20T09:26:03.612Z,101683.22
2023-04-20T09:31:13.664Z,101693.22
2023-04-20T09:36:21.144Z,101697.43
2023-04-20T09:41:26.911Z,101692.00
2023-04-20T09:46:34.398Z,101694.79
2023-04-20T09:51:47.852Z,101684.87
2023-04-20T09:56:54.826Z,101686.68
2023-04-20T10:02:00.760Z,101687.66
2023-04-20T10:07:07.733Z,101677.56
2023-04-20T10:12:14.276Z,101677.08
2023-04-20T10:17:23.172Z,101666.36
2023-04-20T10:22:35.218Z,101660.79
2023-04-20T10:27:43.884Z,101662.13
2023-04-20T10:32:49.635Z,101663.19
2023-04-20T10:37:55.513Z,101657.20
2023-04-20T10:43:02.615Z,101658.84
2023-04-20T10:48:12.005Z,101655.84
2023-04-20T10:53:22.705Z,101657.77
2023-04-20T10:58:30.022Z,101663.80
2023-04-20T11:03:35.803Z,101655.84
2023-04-20T11:08:43.253Z,101649.45
2023-04-20T11:13:49.184Z,101638.56
2023-04-20T11:18:56.513Z,101638.62
2023-04-20T11:24:02.043Z,101639.64
2023-04-20T11:29:07.629Z,101633.08
2023-04-20T11:34:19.326Z,101629.17
2023-04-20T11:39:27.223Z,101620.83
2023-04-20T11:44:33.014Z,101607.29
2023-04-20T11:49:39.467Z,101599.94
2023-04-20T11:54:44.906Z,101590.80
2023-04-20T11:59:50.450Z,101587.66
2023-04-20T12:04:56.061Z,101595.70
2023-04-20T12:10:01.596Z,101584.88
2023-04-20T12:15:08.211Z,101578.58
2023-04-20T12:20:14.480Z,101575.42
2023-04-20T12:25:20.118Z,101580.28
2023-04-20T12:30:25.770Z,101571.51
2023-04-20T12:35:31.553Z,101578.45
2023-04-20T12:40:37.370Z,101572.02
2023-04-20T12:45:42.877Z,101567.83
2023-04-20T12:50:48.392Z,101567.73
2023-04-20T12:56:00.778Z,101561.27
2023-04-20T13:01:01.046Z,101563.20
2023-04-20T13:06:07.150Z,101558.06
2023-04-20T13:11:14.619Z,101560.75
2023-04-20T13:16:21.252Z,101564.77
2023-04-20T13:21:26.889Z,101569.02
2023-04-20T13:26:32.553Z,101562.10
2023-04-20T13:31:38.162Z,101556.31
2023-04-20T13:36:44.057Z,101556.09
2023-04-20T13:41:50.237Z,101553.27
2023-04-20T13:46:55.748Z,101554.50
2023-04-20T13:52:01.688Z,101563.13
2023-04-20T13:57:07.288Z,101559.83
2023-04-20T14:02:12.854Z,101557.75
2023-04-20T14:07:18.407Z,101556.99
2023-04-20T14:12:24.201Z,101558.35
2023-04-20T14:17:29.749Z,101555.05
2023-04-20T14:22:37.292Z,101554.45
2023-04-20T14:27:42.814Z,101555.08
2023-04-20T14:33:01.650Z,101554.20
2023-04-20T14:38:07.267Z,101550.25
2023-04-20T14:43:12.777Z,101536.52
2023-04-20T14:48:18.927Z,101541.87
2023-04-20T14:53:24.670Z,101543.59
2023-04-20T14:58:30.187Z,101529.97
2023-04-20T15:03:36.025Z,101529.46
2023-04-20T15:08:42.617Z,101534.14
2023-04-20T15:13:49.596Z,101534.64
2023-04-20T15:18:55.243Z,101525.47
2023-04-20T15:24:00.767Z,101519.17
2023-04-20T15:29:06.525Z,101526.50
2023-04-20T15:34:13.796Z,101531.03
2023-04-20T15:39:19.309Z,101523.39
2023-04-20T15:44:25.768Z,101535.58
2023-04-20T15:49:31.202Z,101532.61
2023-04-20T15:54:37.960Z,101537.04
2023-04-20T15:59:43.814Z,101528.80
2023-04-20T16:04:49.467Z,101537.69
2023-04-20T16:09:55.193Z,101528.52
2023-04-20T16:15:03.760Z,101533.72
2023-04-20T16:20:10.361Z,101527.50
2023-04-20T16:25:17.448Z,101528.92
2023-04-20T16:30:22.950Z,101534.85
2023-04-20T16:35:28.622Z,101536.11
2023-04-20T16:40:34.150Z,101542.27
2023-04-20T16:45:39.723Z,101545.57
2023-04-20T16:50:49.636Z,101550.08
2023-04-20T16:55:55.060Z,101545.55
2023-04-20T17:01:00.545Z,101548.35
2023-04-20T17:06:08.250Z,101546.27
2023-04-20T17:11:15.744Z,101547.54
2023-04-20T17:16:21.337Z,101553.45
2023-04-20T17:21:27.834Z,101555.77
2023-04-20T17:26:33.375Z,101566.29
2023-04-20T17:31:39.168Z,101566.41
2023-04-20T17:36:44.699Z,101565.96
2023-04-20T17:41:50.525Z,101568.83
2023-04-20T17:46:56.193Z,101567.16
2023-04-20T17:52:01.801Z,101571.03
2023-04-20T17:57:08.947Z,101566.48
2023-04-20T18:02:14.955Z,101574.39
2023-04-20T18:07:20.845Z,101568.80
2023-04-20T18:12:26.426Z,101572.63
2023-04-20T18:17:32.600Z,101581.91
2023-04-20T18:22:38.902Z,101584.53
2023-04-20T18:27:44.431Z,101592.14
2023-04-20T18:32:49.991Z,101600.30
2023-04-20T18:43:56.954Z,101602.16
2023-04-20T18:49:02.574Z,101608.27
2023-04-20T18:54:08.333Z,101606.00
2023-04-20T18:59:13.880Z,101604.05
2023-04-20T19:04:19.834Z,101602.05
2023-04-20T19:10:01.228Z,101603.84
2023-04-20T19:15:09.082Z,101610.91
2023-04-20T19:20:44.544Z,101615.08
2023-04-20T19:26:02.977Z,101613.90
2023-04-20T19:31:10.225Z,101616.58
2023-04-20T19:36:16.066Z,101618.70
2023-04-20T19:41:22.369Z,101623.70
2023-04-20T19:46:28.285Z,101618.50
2023-04-20T19:51:34.208Z,101622.14
2023-04-20T19:56:40.274Z,101635.19
2023-04-20T20:01:46.300Z,101631.98
2023-04-20T20:06:51.998Z,101633.42
2023-04-20T20:11:57.529Z,101635.15
2023-04-20T20:17:03.311Z,101645.80
2023-04-20T20:22:24.067Z,101646.09
2023-04-20T20:27:32.281Z,101648.13
2023-04-20T20:32:37.850Z,101650.69
2023-04-20T20:37:45.434Z,101653.32
2023-04-20T20:42:54.811Z,101647.16
2023-04-20T20:48:00.675Z,101644.39
2023-04-20T20:53:06.279Z,101649.13
2023-04-20T20:58:17.552Z,101644.64
2023-04-20T21:03:23.210Z,101651.34
2023-04-20T21:08:28.998Z,101654.75
2023-04-20T21:13:34.531Z,101662.93
2023-04-20T21:18:40.137Z,101653.77
2023-04-20T21:23:45.709Z,101654.49
2023-04-20T21:28:51.336Z,101645.92
2023-04-20T21:33:57.090Z,101659.69
2023-04-20T21:39:04.090Z,101663.56
2023-04-20T21:44:09.726Z,101664.04
2023-04-20T21:49:15.471Z,101663.53
2023-04-20T21:54:21.146Z,101663.92
2023-04-20T21:59:26.678Z,101668.62
2023-04-20T22:04:32.474Z,101668.85
2023-04-20T22:09:38.546Z,101663.40
2023-04-20T22:14:44.121Z,101665.48
2023-04-20T22:19:49.718Z,101666.03
2023-04-20T22:24:55.173Z,101668.44
2023-04-20T22:30:00.988Z,101672.22
2023-04-20T22:35:07.903Z,101678.84
2023-04-20T22:40:14.358Z,101669.78
2023-04-20T22:45:22.425Z,101675.30
2023-04-20T22:50:28.312Z,101665.83
2023-04-20T22:55:33.964Z,101671.13
2023-04-20T23:00:39.612Z,101676.64
2023-04-20T23:05:45.192Z,101677.59
2023-04-20T23:10:50.990Z,101682.16
2023-04-20T23:15:56.915Z,101680.89
2023-04-20T23:21:02.619Z,101683.65
2023-04-20T23:26:08.053Z,101680.56
2023-04-20T23:31:14.623Z,101677.96
2023-04-20T23:36:20.193Z,101679.16
2023-04-20T23:41:26.041Z,101678.04
2023-04-20T23:46:31.798Z,101675.98
2023-04-20T23:51:39.188Z,101665.84
2023-04-20T23:56:44.865Z,101667.58
